sensor_id;sensor_type;location;lat;lon;timestamp;P1;durP1;ratioP1;P2;durP2;ratioP2
18140;SDS011;9196;49.194;12.526;2023-02-01T00:01:46;3.67;;;3.45;;
18140;SDS011;9196;49.194;12.526;2023-02-01T00:04:13;5.85;;;3.75;;
18140;SDS011;9196;49.194;12.526;2023-02-01T00:06:39;4.00;;;3.70;;
18140;SDS011;9196;49.194;12.526;2023-02-01T00:09:06;4.40;;;3.85;;
18140;SDS011;9196;49.194;12.526;2023-02-01T00:11:33;3.60;;;3.40;;
18140;SDS011;9196;49.194;12.526;2023-02-01T00:14:00;3.97;;;3.72;;
18140;SDS011;9196;49.194;12.526;2023-02-01T00:16:28;5.30;;;3.75;;
18140;SDS011;9196;49.194;12.526;2023-02-01T00:18:58;4.22;;;3.92;;
18140;SDS011;9196;49.194;12.526;2023-02-01T00:21:27;5.10;;;3.80;;
18140;SDS011;9196;49.194;12.526;2023-02-01T00:23:53;3.70;;;3.50;;
18140;SDS011;9196;49.194;12.526;2023-02-01T00:26:23;4.10;;;3.70;;
18140;SDS011;9196;49.194;12.526;2023-02-01T00:28:56;4.13;;;3.80;;
18140;SDS011;9196;49.194;12.526;2023-02-01T00:31:22;4.10;;;3.90;;
18140;SDS011;9196;49.194;12.526;2023-02-01T00:33:49;5.82;;;4.30;;
18140;SDS011;9196;49.194;12.526;2023-02-01T00:36:18;3.63;;;3.42;;
18140;SDS011;9196;49.194;12.526;2023-02-01T00:38:44;4.72;;;4.43;;
18140;SDS011;9196;49.194;12.526;2023-02-01T00:41:12;3.85;;;3.50;;
18140;SDS011;9196;49.194;12.526;2023-02-01T00:43:41;4.88;;;4.47;;
18140;SDS011;9196;49.194;12.526;2023-02-01T00:46:08;3.70;;;3.50;;
18140;SDS011;9196;49.194;12.526;2023-02-01T00:48:35;3.30;;;3.10;;
18140;SDS011;9196;49.194;12.526;2023-02-01T00:51:03;3.05;;;2.60;;
18140;SDS011;9196;49.194;12.526;2023-02-01T00:53:33;3.10;;;3.00;;
18140;SDS011;9196;49.194;12.526;2023-02-01T00:56:00;3.17;;;2.97;;
18140;SDS011;9196;49.194;12.526;2023-02-01T00:58:27;2.70;;;2.60;;
18140;SDS011;9196;49.194;12.526;2023-02-01T01:01:00;3.80;;;3.50;;
18140;SDS011;9196;49.194;12.526;2023-02-01T01:03:29;3.85;;;3.65;;
18140;SDS011;9196;49.194;12.526;2023-02-01T01:05:58;3.10;;;2.90;;
18140;SDS011;9196;49.194;12.526;2023-02-01T01:08:26;3.80;;;3.03;;
18140;SDS011;9196;49.194;12.526;2023-02-01T01:10:54;2.60;;;2.50;;
18140;SDS011;9196;49.194;12.526;2023-02-01T01:13:21;2.90;;;2.80;;
18140;SDS011;9196;49.194;12.526;2023-02-01T01:15:48;3.53;;;3.10;;
18140;SDS011;9196;49.194;12.526;2023-02-01T01:18:15;2.72;;;2.60;;
18140;SDS011;9196;49.194;12.526;2023-02-01T01:20:41;2.72;;;2.53;;
18140;SDS011;9196;49.194;12.526;2023-02-01T01:23:08;4.00;;;3.00;;
18140;SDS011;9196;49.194;12.526;2023-02-01T01:25:36;3.15;;;2.95;;
18140;SDS011;9196;49.194;12.526;2023-02-01T01:28:05;4.53;;;3.30;;
18140;SDS011;9196;49.194;12.526;2023-02-01T01:30:33;3.13;;;2.83;;
18140;SDS011;9196;49.194;12.526;2023-02-01T01:33:00;3.78;;;3.58;;
18140;SDS011;9196;49.194;12.526;2023-02-01T01:35:28;5.93;;;3.90;;
18140;SDS011;9196;49.194;12.526;2023-02-01T01:37:56;4.00;;;3.05;;
18140;SDS011;9196;49.194;12.526;2023-02-01T01:40:23;3.65;;;3.50;;
18140;SDS011;9196;49.194;12.526;2023-02-01T01:42:50;4.35;;;4.03;;
18140;SDS011;9196;49.194;12.526;2023-02-01T01:45:23;3.38;;;3.25;;
18140;SDS011;9196;49.194;12.526;2023-02-01T01:47:52;3.95;;;3.65;;
18140;SDS011;9196;49.194;12.526;2023-02-01T01:50:22;3.85;;;3.55;;
18140;SDS011;9196;49.194;12.526;2023-02-01T01:52:53;3.60;;;3.40;;
18140;SDS011;9196;49.194;12.526;2023-02-01T01:55:21;3.20;;;2.90;;
18140;SDS011;9196;49.194;12.526;2023-02-01T01:57:52;6.90;;;3.35;;
18140;SDS011;9196;49.194;12.526;2023-02-01T02:00:24;3.58;;;3.35;;
18140;SDS011;9196;49.194;12.526;2023-02-01T02:02:53;4.05;;;3.75;;
18140;SDS011;9196;49.194;12.526;2023-02-01T02:05:23;5.50;;;3.63;;
18140;SDS011;9196;49.194;12.526;2023-02-01T02:07:51;3.70;;;3.50;;
18140;SDS011;9196;49.194;12.526;2023-02-01T02:10:19;4.22;;;3.75;;
18140;SDS011;9196;49.194;12.526;2023-02-01T02:13:06;4.57;;;4.22;;
18140;SDS011;9196;49.194;12.526;2023-02-01T02:15:34;4.30;;;4.00;;
18140;SDS011;9196;49.194;12.526;2023-02-01T02:18:08;4.80;;;4.40;;
18140;SDS011;9196;49.194;12.526;2023-02-01T02:20:52;5.70;;;5.20;;
18140;SDS011;9196;49.194;12.526;2023-02-01T02:23:48;4.53;;;4.22;;
18140;SDS011;9196;49.194;12.526;2023-02-01T02:26:43;3.80;;;3.60;;
18140;SDS011;9196;49.194;12.526;2023-02-01T02:35:13;5.90;;;4.65;;
18140;SDS011;9196;49.194;12.526;2023-02-01T02:37:51;4.38;;;4.07;;
18140;SDS011;9196;49.194;12.526;2023-02-01T02:40:25;5.45;;;4.68;;
18140;SDS011;9196;49.194;12.526;2023-02-01T02:42:59;4.50;;;4.20;;
18140;SDS011;9196;49.194;12.526;2023-02-01T02:45:49;6.53;;;5.43;;
18140;SDS011;9196;49.194;12.526;2023-02-01T02:48:41;4.53;;;4.13;;
18140;SDS011;9196;49.194;12.526;2023-02-01T02:51:14;5.10;;;4.68;;
18140;SDS011;9196;49.194;12.526;2023-02-01T02:54:05;5.10;;;4.60;;
18140;SDS011;9196;49.194;12.526;2023-02-01T02:56:53;6.97;;;4.85;;
18140;SDS011;9196;49.194;12.526;2023-02-01T02:59:40;5.75;;;5.20;;
18140;SDS011;9196;49.194;12.526;2023-02-01T03:02:27;5.22;;;3.80;;
18140;SDS011;9196;49.194;12.526;2023-02-01T03:05:12;4.60;;;4.25;;
18140;SDS011;9196;49.194;12.526;2023-02-01T03:07:52;4.00;;;3.75;;
18140;SDS011;9196;49.194;12.526;2023-02-01T03:10:24;4.47;;;3.65;;
18140;SDS011;9196;49.194;12.526;2023-02-01T03:12:59;4.78;;;4.38;;
18140;SDS011;9196;49.194;12.526;2023-02-01T03:15:31;5.05;;;4.68;;
18140;SDS011;9196;49.194;12.526;2023-02-01T03:18:00;5.10;;;4.60;;
18140;SDS011;9196;49.194;12.526;2023-02-01T03:20:29;3.95;;;3.72;;
18140;SDS011;9196;49.194;12.526;2023-02-01T03:22:59;3.90;;;3.70;;
18140;SDS011;9196;49.194;12.526;2023-02-01T03:25:27;4.05;;;3.17;;
18140;SDS011;9196;49.194;12.526;2023-02-01T03:27:57;3.60;;;3.40;;
18140;SDS011;9196;49.194;12.526;2023-02-01T03:30:28;3.35;;;3.15;;
18140;SDS011;9196;49.194;12.526;2023-02-01T03:32:58;4.03;;;3.83;;
18140;SDS011;9196;49.194;12.526;2023-02-01T03:35:28;4.40;;;4.10;;
18140;SDS011;9196;49.194;12.526;2023-02-01T03:38:02;5.55;;;3.78;;
18140;SDS011;9196;49.194;12.526;2023-02-01T03:40:35;4.65;;;4.25;;
18140;SDS011;9196;49.194;12.526;2023-02-01T03:43:04;3.28;;;3.17;;
18140;SDS011;9196;49.194;12.526;2023-02-01T03:45:34;9.00;;;4.25;;
18140;SDS011;9196;49.194;12.526;2023-02-01T03:48:05;4.72;;;3.42;;
18140;SDS011;9196;49.194;12.526;2023-02-01T03:50:33;3.50;;;2.78;;
18140;SDS011;9196;49.194;12.526;2023-02-01T03:53:05;5.80;;;4.28;;
18140;SDS011;9196;49.194;12.526;2023-02-01T03:55:35;3.55;;;3.35;;
18140;SDS011;9196;49.194;12.526;2023-02-01T03:58:04;4.50;;;3.80;;
18140;SDS011;9196;49.194;12.526;2023-02-01T04:00:34;3.55;;;3.25;;
18140;SDS011;9196;49.194;12.526;2023-02-01T04:03:00;4.38;;;4.07;;
18140;SDS011;9196;49.194;12.526;2023-02-01T04:05:29;4.00;;;3.70;;
18140;SDS011;9196;49.194;12.526;2023-02-01T04:07:56;3.08;;;2.88;;
18140;SDS011;9196;49.194;12.526;2023-02-01T04:10:24;3.80;;;3.50;;
18140;SDS011;9196;49.194;12.526;2023-02-01T04:12:51;4.38;;;4.00;;
18140;SDS011;9196;49.194;12.526;2023-02-01T04:15:18;4.35;;;3.90;;
18140;SDS011;9196;49.194;12.526;2023-02-01T04:17:45;3.80;;;3.60;;
18140;SDS011;9196;49.194;12.526;2023-02-01T04:20:12;4.43;;;4.03;;
18140;SDS011;9196;49.194;12.526;2023-02-01T04:22:39;4.72;;;4.20;;
18140;SDS011;9196;49.194;12.526;2023-02-01T04:25:06;5.38;;;3.95;;
18140;SDS011;9196;49.194;12.526;2023-02-01T04:27:35;5.57;;;4.18;;
18140;SDS011;9196;49.194;12.526;2023-02-01T04:30:02;5.10;;;3.88;;
18140;SDS011;9196;49.194;12.526;2023-02-01T04:32:29;4.90;;;4.32;;
18140;SDS011;9196;49.194;12.526;2023-02-01T04:34:56;4.20;;;3.90;;
18140;SDS011;9196;49.194;12.526;2023-02-01T04:37:23;3.67;;;3.47;;
18140;SDS011;9196;49.194;12.526;2023-02-01T04:39:49;3.28;;;3.08;;
18140;SDS011;9196;49.194;12.526;2023-02-01T04:42:16;3.63;;;3.33;;
18140;SDS011;9196;49.194;12.526;2023-02-01T04:44:44;4.20;;;3.80;;
18140;SDS011;9196;49.194;12.526;2023-02-01T04:47:11;3.97;;;3.75;;
18140;SDS011;9196;49.194;12.526;2023-02-01T04:49:39;4.57;;;4.15;;
18140;SDS011;9196;49.194;12.526;2023-02-01T04:52:06;4.20;;;3.90;;
18140;SDS011;9196;49.194;12.526;2023-02-01T04:54:33;4.28;;;4.03;;
18140;SDS011;9196;49.194;12.526;2023-02-01T04:57:00;3.50;;;3.30;;
18140;SDS011;9196;49.194;12.526;2023-02-01T04:59:27;3.92;;;3.70;;
18140;SDS011;9196;49.194;12.526;2023-02-01T05:01:55;3.65;;;3.45;;
18140;SDS011;9196;49.194;12.526;2023-02-01T05:04:22;3.58;;;3.38;;
18140;SDS011;9196;49.194;12.526;2023-02-01T05:06:49;7.13;;;4.60;;
18140;SDS011;9196;49.194;12.526;2023-02-01T05:09:15;4.40;;;4.10;;
18140;SDS011;9196;49.194;12.526;2023-02-01T05:11:42;3.83;;;3.53;;
18140;SDS011;9196;49.194;12.526;2023-02-01T05:14:27;4.30;;;4.00;;
18140;SDS011;9196;49.194;12.526;2023-02-01T05:16:53;5.07;;;4.57;;
18140;SDS011;9196;49.194;12.526;2023-02-01T05:19:21;4.28;;;3.97;;
18140;SDS011;9196;49.194;12.526;2023-02-01T05:21:48;5.05;;;4.25;;
18140;SDS011;9196;49.194;12.526;2023-02-01T05:24:15;3.80;;;3.60;;
18140;SDS011;9196;49.194;12.526;2023-02-01T05:26:45;4.13;;;3.83;;
18140;SDS011;9196;49.194;12.526;2023-02-01T05:29:13;4.50;;;4.20;;
18140;SDS011;9196;49.194;12.526;2023-02-01T05:31:41;5.35;;;4.35;;
18140;SDS011;9196;49.194;12.526;2023-02-01T05:34:11;5.25;;;4.78;;
18140;SDS011;9196;49.194;12.526;2023-02-01T05:36:38;4.15;;;3.85;;
18140;SDS011;9196;49.194;12.526;2023-02-01T05:39:05;5.32;;;4.20;;
18140;SDS011;9196;49.194;12.526;2023-02-01T05:41:32;4.97;;;4.15;;
18140;SDS011;9196;49.194;12.526;2023-02-01T05:43:58;5.18;;;4.68;;
18140;SDS011;9196;49.194;12.526;2023-02-01T05:46:25;7.80;;;4.18;;
18140;SDS011;9196;49.194;12.526;2023-02-01T05:48:52;3.75;;;3.55;;
18140;SDS011;9196;49.194;12.526;2023-02-01T05:51:20;4.43;;;4.13;;
18140;SDS011;9196;49.194;12.526;2023-02-01T05:53:47;3.63;;;3.40;;
18140;SDS011;9196;49.194;12.526;2023-02-01T05:56:13;7.15;;;4.15;;
18140;SDS011;9196;49.194;12.526;2023-02-01T05:58:40;4.72;;;4.43;;
18140;SDS011;9196;49.194;12.526;2023-02-01T06:01:07;4.55;;;3.92;;
18140;SDS011;9196;49.194;12.526;2023-02-01T06:03:34;4.50;;;4.20;;
18140;SDS011;9196;49.194;12.526;2023-02-01T06:06:01;5.22;;;3.80;;
18140;SDS011;9196;49.194;12.526;2023-02-01T06:08:30;4.07;;;3.85;;
18140;SDS011;9196;49.194;12.526;2023-02-01T06:10:57;5.65;;;4.03;;
18140;SDS011;9196;49.194;12.526;2023-02-01T06:13:24;4.22;;;3.92;;
18140;SDS011;9196;49.194;12.526;2023-02-01T06:15:51;4.40;;;3.95;;
18140;SDS011;9196;49.194;12.526;2023-02-01T06:18:18;3.72;;;3.53;;
18140;SDS011;9196;49.194;12.526;2023-02-01T06:20:51;5.95;;;3.95;;
18140;SDS011;9196;49.194;12.526;2023-02-01T06:23:18;3.70;;;3.50;;
18140;SDS011;9196;49.194;12.526;2023-02-01T06:25:50;4.28;;;3.97;;
18140;SDS011;9196;49.194;12.526;2023-02-01T06:28:17;3.47;;;3.13;;
18140;SDS011;9196;49.194;12.526;2023-02-01T06:30:44;2.33;;;2.33;;
18140;SDS011;9196;49.194;12.526;2023-02-01T06:33:11;3.10;;;2.95;;
18140;SDS011;9196;49.194;12.526;2023-02-01T06:35:39;4.00;;;3.70;;
18140;SDS011;9196;49.194;12.526;2023-02-01T06:38:07;3.17;;;3.08;;
18140;SDS011;9196;49.194;12.526;2023-02-01T06:40:34;2.78;;;2.65;;
18140;SDS011;9196;49.194;12.526;2023-02-01T06:43:02;3.90;;;2.70;;
18140;SDS011;9196;49.194;12.526;2023-02-01T06:45:29;3.10;;;2.90;;
18140;SDS011;9196;49.194;12.526;2023-02-01T06:47:58;3.33;;;3.13;;
18140;SDS011;9196;49.194;12.526;2023-02-01T06:50:25;7.82;;;3.40;;
18140;SDS011;9196;49.194;12.526;2023-02-01T06:52:52;3.60;;;3.30;;
18140;SDS011;9196;49.194;12.526;2023-02-01T06:55:19;2.25;;;2.15;;
18140;SDS011;9196;49.194;12.526;2023-02-01T06:57:46;3.15;;;3.03;;
18140;SDS011;9196;49.194;12.526;2023-02-01T07:00:14;3.88;;;3.63;;
18140;SDS011;9196;49.194;12.526;2023-02-01T07:02:42;3.78;;;3.58;;
18140;SDS011;9196;49.194;12.526;2023-02-01T07:05:08;2.92;;;2.58;;
18140;SDS011;9196;49.194;12.526;2023-02-01T07:07:35;1.80;;;1.77;;
18140;SDS011;9196;49.194;12.526;2023-02-01T07:10:02;3.75;;;2.00;;
18140;SDS011;9196;49.194;12.526;2023-02-01T07:12:29;2.00;;;1.95;;
18140;SDS011;9196;49.194;12.526;2023-02-01T07:14:56;2.00;;;1.85;;
18140;SDS011;9196;49.194;12.526;2023-02-01T07:17:24;2.17;;;2.08;;
18140;SDS011;9196;49.194;12.526;2023-02-01T07:19:51;2.55;;;2.22;;
18140;SDS011;9196;49.194;12.526;2023-02-01T07:22:18;2.20;;;2.10;;
18140;SDS011;9196;49.194;12.526;2023-02-01T07:24:45;4.65;;;2.47;;
18140;SDS011;9196;49.194;12.526;2023-02-01T07:27:12;3.50;;;2.72;;
18140;SDS011;9196;49.194;12.526;2023-02-01T07:29:38;5.30;;;2.60;;
18140;SDS011;9196;49.194;12.526;2023-02-01T07:32:05;3.10;;;2.45;;
18140;SDS011;9196;49.194;12.526;2023-02-01T07:34:33;6.00;;;2.20;;
18140;SDS011;9196;49.194;12.526;2023-02-01T07:37:00;4.03;;;1.70;;
18140;SDS011;9196;49.194;12.526;2023-02-01T07:39:27;1.83;;;1.35;;
18140;SDS011;9196;49.194;12.526;2023-02-01T07:41:57;2.72;;;1.98;;
18140;SDS011;9196;49.194;12.526;2023-02-01T07:44:23;8.05;;;1.70;;
18140;SDS011;9196;49.194;12.526;2023-02-01T07:46:50;1.50;;;1.38;;
18140;SDS011;9196;49.194;12.526;2023-02-01T07:49:17;8.32;;;2.00;;
18140;SDS011;9196;49.194;12.526;2023-02-01T07:51:45;1.73;;;1.60;;
18140;SDS011;9196;49.194;12.526;2023-02-01T07:54:12;1.35;;;1.27;;
18140;SDS011;9196;49.194;12.526;2023-02-01T07:56:39;1.60;;;1.35;;
18140;SDS011;9196;49.194;12.526;2023-02-01T07:59:06;5.15;;;1.75;;
18140;SDS011;9196;49.194;12.526;2023-02-01T08:01:33;3.03;;;1.88;;
18140;SDS011;9196;49.194;12.526;2023-02-01T08:03:59;1.60;;;1.50;;
18140;SDS011;9196;49.194;12.526;2023-02-01T08:06:27;3.80;;;1.63;;
18140;SDS011;9196;49.194;12.526;2023-02-01T08:08:57;1.90;;;1.67;;
18140;SDS011;9196;49.194;12.526;2023-02-01T08:11:25;1.85;;;1.60;;
18140;SDS011;9196;49.194;12.526;2023-02-01T08:13:52;1.60;;;1.50;;
18140;SDS011;9196;49.194;12.526;2023-02-01T08:16:19;1.38;;;1.38;;
18140;SDS011;9196;49.194;12.526;2023-02-01T08:18:46;1.52;;;1.35;;
18140;SDS011;9196;49.194;12.526;2023-02-01T08:21:14;1.00;;;1.00;;
18140;SDS011;9196;49.194;12.526;2023-02-01T08:23:42;2.00;;;1.40;;
18140;SDS011;9196;49.194;12.526;2023-02-01T08:26:12;0.90;;;0.90;;
18140;SDS011;9196;49.194;12.526;2023-02-01T08:28:40;1.50;;;1.50;;
18140;SDS011;9196;49.194;12.526;2023-02-01T08:31:09;1.20;;;1.20;;
18140;SDS011;9196;49.194;12.526;2023-02-01T08:33:39;1.70;;;1.60;;
18140;SDS011;9196;49.194;12.526;2023-02-01T08:36:07;2.13;;;2.03;;
18140;SDS011;9196;49.194;12.526;2023-02-01T08:38:36;1.73;;;1.70;;
18140;SDS011;9196;49.194;12.526;2023-02-01T08:41:04;2.05;;;1.40;;
18140;SDS011;9196;49.194;12.526;2023-02-01T08:43:33;1.42;;;1.42;;
18140;SDS011;9196;49.194;12.526;2023-02-01T08:46:00;1.80;;;1.80;;
18140;SDS011;9196;49.194;12.526;2023-02-01T08:48:27;2.50;;;1.85;;
18140;SDS011;9196;49.194;12.526;2023-02-01T08:50:54;2.20;;;2.10;;
18140;SDS011;9196;49.194;12.526;2023-02-01T08:53:22;2.10;;;2.00;;
18140;SDS011;9196;49.194;12.526;2023-02-01T08:55:49;11.15;;;3.58;;
18140;SDS011;9196;49.194;12.526;2023-02-01T08:58:16;3.35;;;2.17;;
18140;SDS011;9196;49.194;12.526;2023-02-01T09:00:44;2.53;;;2.42;;
18140;SDS011;9196;49.194;12.526;2023-02-01T09:03:13;2.95;;;2.80;;
18140;SDS011;9196;49.194;12.526;2023-02-01T09:05:40;2.25;;;2.10;;
18140;SDS011;9196;49.194;12.526;2023-02-01T09:08:07;2.95;;;2.80;;
18140;SDS011;9196;49.194;12.526;2023-02-01T09:10:34;3.47;;;3.20;;
18140;SDS011;9196;49.194;12.526;2023-02-01T09:13:02;5.88;;;2.90;;
18140;SDS011;9196;49.194;12.526;2023-02-01T09:15:29;4.43;;;2.30;;
18140;SDS011;9196;49.194;12.526;2023-02-01T09:17:57;3.72;;;3.45;;
18140;SDS011;9196;49.194;12.526;2023-02-01T09:20:24;5.07;;;2.97;;
18140;SDS011;9196;49.194;12.526;2023-02-01T09:22:51;3.00;;;2.80;;
18140;SDS011;9196;49.194;12.526;2023-02-01T09:25:18;2.95;;;2.63;;
18140;SDS011;9196;49.194;12.526;2023-02-01T09:27:45;4.38;;;3.33;;
18140;SDS011;9196;49.194;12.526;2023-02-01T09:30:12;3.53;;;2.55;;
18140;SDS011;9196;49.194;12.526;2023-02-01T09:32:39;5.93;;;3.55;;
18140;SDS011;9196;49.194;12.526;2023-02-01T09:35:08;2.80;;;2.58;;
18140;SDS011;9196;49.194;12.526;2023-02-01T09:37:35;3.22;;;3.03;;
18140;SDS011;9196;49.194;12.526;2023-02-01T09:40:02;3.55;;;3.10;;
18140;SDS011;9196;49.194;12.526;2023-02-01T09:45:37;2.63;;;2.47;;
18140;SDS011;9196;49.194;12.526;2023-02-01T09:48:11;3.65;;;2.75;;
18140;SDS011;9196;49.194;12.526;2023-02-01T09:50:43;4.15;;;2.30;;
18140;SDS011;9196;49.194;12.526;2023-02-01T09:53:15;4.90;;;3.33;;
18140;SDS011;9196;49.194;12.526;2023-02-01T09:55:48;3.15;;;2.85;;
18140;SDS011;9196;49.194;12.526;2023-02-01T09:58:18;5.28;;;2.50;;
18140;SDS011;9196;49.194;12.526;2023-02-01T10:00:52;5.50;;;2.72;;
18140;SDS011;9196;49.194;12.526;2023-02-01T10:03:20;3.13;;;2.90;;
18140;SDS011;9196;49.194;12.526;2023-02-01T10:08:57;4.32;;;2.97;;
18140;SDS011;9196;49.194;12.526;2023-02-01T10:11:55;5.85;;;2.83;;
18140;SDS011;9196;49.194;12.526;2023-02-01T10:14:46;4.55;;;3.10;;
18140;SDS011;9196;49.194;12.526;2023-02-01T10:17:25;4.10;;;2.65;;
18140;SDS011;9196;49.194;12.526;2023-02-01T10:20:05;14.27;;;3.00;;
18140;SDS011;9196;49.194;12.526;2023-02-01T10:22:39;7.60;;;3.40;;
18140;SDS011;9196;49.194;12.526;2023-02-01T10:25:11;4.28;;;2.50;;
18140;SDS011;9196;49.194;12.526;2023-02-01T10:27:44;4.97;;;2.78;;
18140;SDS011;9196;49.194;12.526;2023-02-01T10:30:16;3.22;;;2.53;;
18140;SDS011;9196;49.194;12.526;2023-02-01T10:32:46;5.70;;;2.40;;
18140;SDS011;9196;49.194;12.526;2023-02-01T10:35:15;12.77;;;3.15;;
18140;SDS011;9196;49.194;12.526;2023-02-01T10:37:44;6.80;;;3.00;;
18140;SDS011;9196;49.194;12.526;2023-02-01T10:40:15;7.75;;;2.45;;
18140;SDS011;9196;49.194;12.526;2023-02-01T10:42:44;3.58;;;3.03;;
18140;SDS011;9196;49.194;12.526;2023-02-01T10:45:13;9.45;;;3.03;;
18140;SDS011;9196;49.194;12.526;2023-02-01T10:47:42;4.05;;;3.60;;
18140;SDS011;9196;49.194;12.526;2023-02-01T10:50:13;23.25;;;4.65;;
18140;SDS011;9196;49.194;12.526;2023-02-01T10:52:46;7.57;;;4.10;;
18140;SDS011;9196;49.194;12.526;2023-02-01T10:55:32;9.27;;;4.55;;
18140;SDS011;9196;49.194;12.526;2023-02-01T10:58:03;6.32;;;3.60;;
18140;SDS011;9196;49.194;12.526;2023-02-01T11:00:37;8.82;;;3.90;;
18140;SDS011;9196;49.194;12.526;2023-02-01T11:05:59;6.78;;;3.15;;
18140;SDS011;9196;49.194;12.526;2023-02-01T11:08:28;4.80;;;2.55;;
18140;SDS011;9196;49.194;12.526;2023-02-01T11:10:58;2.65;;;2.42;;
18140;SDS011;9196;49.194;12.526;2023-02-01T11:13:30;2.28;;;2.08;;
18140;SDS011;9196;49.194;12.526;2023-02-01T11:16:01;1.73;;;1.63;;
18140;SDS011;9196;49.194;12.526;2023-02-01T11:18:31;2.50;;;2.30;;
18140;SDS011;9196;49.194;12.526;2023-02-01T11:21:01;2.42;;;1.65;;
18140;SDS011;9196;49.194;12.526;2023-02-01T11:23:30;3.90;;;2.10;;
18140;SDS011;9196;49.194;12.526;2023-02-01T11:26:09;3.20;;;2.33;;
18140;SDS011;9196;49.194;12.526;2023-02-01T11:28:38;7.45;;;3.30;;
18140;SDS011;9196;49.194;12.526;2023-02-01T11:31:09;4.15;;;2.90;;
18140;SDS011;9196;49.194;12.526;2023-02-01T11:33:38;2.50;;;2.30;;
18140;SDS011;9196;49.194;12.526;2023-02-01T11:36:14;4.85;;;1.70;;
18140;SDS011;9196;49.194;12.526;2023-02-01T11:38:45;4.18;;;2.00;;
18140;SDS011;9196;49.194;12.526;2023-02-01T11:41:21;3.60;;;2.67;;
18140;SDS011;9196;49.194;12.526;2023-02-01T11:43:51;5.18;;;1.95;;
18140;SDS011;9196;49.194;12.526;2023-02-01T11:46:21;2.22;;;1.77;;
18140;SDS011;9196;49.194;12.526;2023-02-01T11:48:52;3.33;;;2.33;;
18140;SDS011;9196;49.194;12.526;2023-02-01T11:51:23;9.38;;;2.90;;
18140;SDS011;9196;49.194;12.526;2023-02-01T11:56:54;3.00;;;1.95;;
18140;SDS011;9196;49.194;12.526;2023-02-01T11:59:34;2.10;;;1.88;;
18140;SDS011;9196;49.194;12.526;2023-02-01T12:02:37;7.15;;;2.85;;
18140;SDS011;9196;49.194;12.526;2023-02-01T12:05:18;5.85;;;2.08;;
18140;SDS011;9196;49.194;12.526;2023-02-01T12:08:00;5.78;;;2.55;;
18140;SDS011;9196;49.194;12.526;2023-02-01T12:10:48;3.53;;;2.60;;
18140;SDS011;9196;49.194;12.526;2023-02-01T12:13:26;7.47;;;3.17;;
18140;SDS011;9196;49.194;12.526;2023-02-01T12:16:02;5.07;;;2.10;;
18140;SDS011;9196;49.194;12.526;2023-02-01T12:21:43;7.18;;;2.00;;
18140;SDS011;9196;49.194;12.526;2023-02-01T12:24:31;6.85;;;2.42;;
18140;SDS011;9196;49.194;12.526;2023-02-01T12:27:32;4.95;;;3.08;;
18140;SDS011;9196;49.194;12.526;2023-02-01T12:30:16;5.25;;;2.78;;
18140;SDS011;9196;49.194;12.526;2023-02-01T12:33:02;8.32;;;3.10;;
18140;SDS011;9196;49.194;12.526;2023-02-01T12:35:42;7.32;;;3.15;;
18140;SDS011;9196;49.194;12.526;2023-02-01T12:38:20;6.57;;;2.75;;
18140;SDS011;9196;49.194;12.526;2023-02-01T12:41:00;6.85;;;3.42;;
18140;SDS011;9196;49.194;12.526;2023-02-01T12:43:36;7.25;;;3.35;;
18140;SDS011;9196;49.194;12.526;2023-02-01T12:46:11;9.32;;;3.13;;
18140;SDS011;9196;49.194;12.526;2023-02-01T12:48:42;10.52;;;3.10;;
18140;SDS011;9196;49.194;12.526;2023-02-01T12:51:16;9.98;;;2.90;;
18140;SDS011;9196;49.194;12.526;2023-02-01T12:53:46;9.98;;;2.80;;
18140;SDS011;9196;49.194;12.526;2023-02-01T12:56:25;5.88;;;3.25;;
18140;SDS011;9196;49.194;12.526;2023-02-01T12:58:58;9.77;;;3.53;;
18140;SDS011;9196;49.194;12.526;2023-02-01T13:01:32;9.63;;;2.80;;
18140;SDS011;9196;49.194;12.526;2023-02-01T13:04:05;5.88;;;2.50;;
18140;SDS011;9196;49.194;12.526;2023-02-01T13:06:38;2.95;;;2.65;;
18140;SDS011;9196;49.194;12.526;2023-02-01T13:09:12;9.40;;;3.20;;
18140;SDS011;9196;49.194;12.526;2023-02-01T13:11:45;3.38;;;2.38;;
18140;SDS011;9196;49.194;12.526;2023-02-01T13:14:17;6.95;;;2.58;;
18140;SDS011;9196;49.194;12.526;2023-02-01T13:16:53;6.22;;;2.50;;
18140;SDS011;9196;49.194;12.526;2023-02-01T13:19:27;3.90;;;2.17;;
18140;SDS011;9196;49.194;12.526;2023-02-01T13:22:00;3.65;;;2.47;;
18140;SDS011;9196;49.194;12.526;2023-02-01T13:24:33;9.38;;;2.45;;
18140;SDS011;9196;49.194;12.526;2023-02-01T13:27:04;5.05;;;2.70;;
18140;SDS011;9196;49.194;12.526;2023-02-01T13:29:31;4.20;;;1.80;;
18140;SDS011;9196;49.194;12.526;2023-02-01T13:32:17;4.97;;;2.92;;
18140;SDS011;9196;49.194;12.526;2023-02-01T13:38:03;2.72;;;2.50;;
18140;SDS011;9196;49.194;12.526;2023-02-01T13:40:54;4.18;;;2.00;;
18140;SDS011;9196;49.194;12.526;2023-02-01T13:43:33;4.40;;;2.55;;
18140;SDS011;9196;49.194;12.526;2023-02-01T13:46:02;6.05;;;2.63;;
18140;SDS011;9196;49.194;12.526;2023-02-01T13:48:35;4.40;;;2.70;;
18140;SDS011;9196;49.194;12.526;2023-02-01T13:51:06;3.45;;;2.10;;
18140;SDS011;9196;49.194;12.526;2023-02-01T13:53:34;6.13;;;3.03;;
18140;SDS011;9196;49.194;12.526;2023-02-01T13:56:03;4.82;;;2.78;;
18140;SDS011;9196;49.194;12.526;2023-02-01T13:58:34;7.00;;;2.60;;
18140;SDS011;9196;49.194;12.526;2023-02-01T14:03:59;8.27;;;2.53;;
18140;SDS011;9196;49.194;12.526;2023-02-01T14:09:20;9.77;;;2.50;;
18140;SDS011;9196;49.194;12.526;2023-02-01T14:11:59;4.85;;;2.20;;
18140;SDS011;9196;49.194;12.526;2023-02-01T14:15:16;2.88;;;1.90;;
18140;SDS011;9196;49.194;12.526;2023-02-01T14:17:49;6.80;;;2.10;;
18140;SDS011;9196;49.194;12.526;2023-02-01T14:23:29;3.38;;;1.60;;
18140;SDS011;9196;49.194;12.526;2023-02-01T14:26:03;2.45;;;2.03;;
18140;SDS011;9196;49.194;12.526;2023-02-01T14:28:32;2.13;;;1.90;;
18140;SDS011;9196;49.194;12.526;2023-02-01T14:31:13;3.70;;;2.35;;
18140;SDS011;9196;49.194;12.526;2023-02-01T14:33:43;5.90;;;2.10;;
18140;SDS011;9196;49.194;12.526;2023-02-01T14:36:13;5.78;;;2.53;;
18140;SDS011;9196;49.194;12.526;2023-02-01T14:38:47;15.05;;;3.70;;
18140;SDS011;9196;49.194;12.526;2023-02-01T14:41:24;6.85;;;2.20;;
18140;SDS011;9196;49.194;12.526;2023-02-01T14:44:14;6.00;;;2.85;;
18140;SDS011;9196;49.194;12.526;2023-02-01T14:49:54;15.65;;;3.50;;
18140;SDS011;9196;49.194;12.526;2023-02-01T14:52:30;8.07;;;3.05;;
18140;SDS011;9196;49.194;12.526;2023-02-01T14:55:02;12.68;;;3.33;;
18140;SDS011;9196;49.194;12.526;2023-02-01T14:57:33;6.70;;;2.58;;
18140;SDS011;9196;49.194;12.526;2023-02-01T15:00:07;6.63;;;2.33;;
18140;SDS011;9196;49.194;12.526;2023-02-01T15:02:43;6.45;;;2.80;;
18140;SDS011;9196;49.194;12.526;2023-02-01T15:05:23;5.05;;;2.05;;
18140;SDS011;9196;49.194;12.526;2023-02-01T15:08:00;5.40;;;2.40;;
18140;SDS011;9196;49.194;12.526;2023-02-01T15:10:32;6.05;;;2.55;;
18140;SDS011;9196;49.194;12.526;2023-02-01T15:13:12;4.55;;;2.83;;
18140;SDS011;9196;49.194;12.526;2023-02-01T15:15:49;5.80;;;3.28;;
18140;SDS011;9196;49.194;12.526;2023-02-01T15:18:26;6.00;;;3.28;;
18140;SDS011;9196;49.194;12.526;2023-02-01T15:20:56;7.03;;;2.78;;
18140;SDS011;9196;49.194;12.526;2023-02-01T15:23:25;3.05;;;2.85;;
18140;SDS011;9196;49.194;12.526;2023-02-01T15:25:52;5.70;;;2.83;;
18140;SDS011;9196;49.194;12.526;2023-02-01T15:28:20;10.43;;;3.88;;
18140;SDS011;9196;49.194;12.526;2023-02-01T15:30:54;6.63;;;3.13;;
18140;SDS011;9196;49.194;12.526;2023-02-01T15:33:23;5.60;;;3.17;;
18140;SDS011;9196;49.194;12.526;2023-02-01T15:35:51;6.95;;;3.53;;
18140;SDS011;9196;49.194;12.526;2023-02-01T15:38:35;6.28;;;3.83;;
18140;SDS011;9196;49.194;12.526;2023-02-01T15:41:05;11.90;;;3.55;;
18140;SDS011;9196;49.194;12.526;2023-02-01T15:43:36;7.50;;;3.40;;
18140;SDS011;9196;49.194;12.526;2023-02-01T15:46:09;12.32;;;4.25;;
18140;SDS011;9196;49.194;12.526;2023-02-01T15:48:42;13.88;;;4.97;;